createdAt,value
2022-11-09T00:00:45.031Z,11.72
2022-11-09T00:03:12.844Z,11.81
2022-11-09T00:05:40.650Z,11.72
2022-11-09T00:08:10.339Z,11.76
2022-11-09T00:10:38.981Z,11.78
2022-11-09T00:13:06.478Z,11.73
2022-11-09T00:15:33.817Z,11.77
2022-11-09T00:18:03.054Z,11.79
2022-11-09T00:20:30.480Z,11.69
2022-11-09T00:22:57.912Z,11.79
2022-11-09T00:25:25.570Z,11.75
2022-11-09T00:27:53.214Z,11.78
2022-11-09T00:30:20.875Z,11.77
2022-11-09T00:32:48.533Z,11.67
2022-11-09T00:35:16.144Z,11.73
2022-11-09T00:37:43.526Z,11.78
2022-11-09T00:40:13.190Z,11.78
2022-11-09T00:42:40.564Z,11.73
2022-11-09T00:45:08.429Z,11.75
2022-11-09T00:47:35.889Z,11.73
2022-11-09T00:50:04.936Z,11.70
2022-11-09T00:52:32.851Z,11.69
2022-11-09T00:55:03.493Z,11.76
2022-11-09T00:57:34.429Z,11.58
2022-11-09T01:00:01.789Z,11.60
2022-11-09T01:02:30.976Z,11.52
2022-11-09T01:04:58.338Z,11.37
2022-11-09T01:07:26.465Z,11.40
2022-11-09T01:09:53.788Z,11.32
2022-11-09T01:12:24.257Z,11.42
2022-11-09T01:14:52.012Z,11.48
2022-11-09T01:17:19.455Z,11.46
2022-11-09T01:19:47.813Z,11.40
2022-11-09T01:22:21.443Z,11.49
2022-11-09T01:24:48.910Z,11.51
2022-11-09T01:27:20.049Z,11.48
2022-11-09T01:29:47.523Z,11.50
2022-11-09T01:32:14.841Z,11.47
2022-11-09T01:34:42.324Z,11.44
2022-11-09T01:37:11.750Z,11.43
2022-11-09T01:39:39.120Z,11.45
2022-11-09T01:42:06.572Z,11.50
2022-11-09T01:44:37.402Z,11.47
2022-11-09T01:47:13.409Z,11.43
2022-11-09T01:49:54.651Z,11.41
2022-11-09T01:52:32.013Z,11.32
2022-11-09T01:55:07.717Z,11.30
2022-11-09T01:57:47.339Z,11.39
2022-11-09T02:00:16.146Z,11.48
2022-11-09T02:02:49.226Z,11.43
2022-11-09T02:05:23.643Z,11.41
2022-11-09T02:07:54.184Z,11.37
2022-11-09T02:10:35.782Z,11.40
2022-11-09T02:13:03.827Z,11.40
2022-11-09T02:15:45.499Z,11.36
2022-11-09T02:18:14.061Z,11.25
2022-11-09T02:20:55.996Z,11.32
2022-11-09T02:23:25.225Z,11.32
2022-11-09T02:25:58.214Z,11.41
2022-11-09T02:28:27.596Z,11.44
2022-11-09T02:30:57.149Z,11.38
2022-11-09T02:33:26.733Z,11.34
2022-11-09T02:35:55.701Z,11.22
2022-11-09T02:38:23.458Z,11.26
2022-11-09T02:40:52.746Z,11.29
2022-11-09T02:43:22.222Z,11.26
2022-11-09T02:45:49.939Z,11.25
2022-11-09T02:48:17.491Z,11.28
2022-11-09T02:50:44.941Z,11.30
2022-11-09T02:53:12.260Z,11.34
2022-11-09T02:55:43.462Z,11.34
2022-11-09T02:58:11.055Z,11.28
2022-11-09T03:00:39.836Z,11.29
2022-11-09T03:03:07.469Z,11.20
2022-11-09T03:05:34.984Z,11.11
2022-11-09T03:08:02.638Z,11.19
2022-11-09T03:10:33.212Z,11.22
2022-11-09T03:13:01.465Z,11.20
2022-11-09T03:15:29.938Z,11.15
2022-11-09T03:17:57.470Z,11.10
2022-11-09T03:20:25.554Z,11.10
2022-11-09T03:22:57.843Z,11.03
2022-11-09T03:25:26.219Z,11.11
2022-11-09T03:27:58.716Z,11.09
2022-11-09T03:30:27.680Z,11.09
2022-11-09T03:33:00.365Z,11.13
2022-11-09T03:35:28.397Z,11.18
2022-11-09T03:37:55.903Z,11.23
2022-11-09T03:40:25.091Z,11.21
2022-11-09T03:42:52.520Z,11.23
2022-11-09T03:45:21.547Z,11.25
2022-11-09T03:47:48.923Z,11.23
2022-11-09T03:50:17.570Z,11.28
2022-11-09T03:52:46.540Z,11.24
2022-11-09T03:55:14.733Z,11.28
2022-11-09T03:57:43.973Z,11.19
2022-11-09T04:00:12.467Z,11.22
2022-11-09T04:02:39.999Z,11.12
2022-11-09T04:05:08.483Z,11.18
2022-11-09T04:07:36.149Z,11.15
2022-11-09T04:10:04.676Z,11.11
2022-11-09T04:12:32.114Z,11.21
2022-11-09T04:14:59.469Z,11.24
2022-11-09T04:17:26.830Z,11.26
2022-11-09T04:19:57.075Z,11.32
2022-11-09T04:22:24.469Z,11.39
2022-11-09T04:24:51.889Z,11.37
2022-11-09T04:27:19.303Z,11.43
2022-11-09T04:29:46.809Z,11.44
2022-11-09T04:32:14.269Z,11.47
2022-11-09T04:34:41.628Z,11.48
2022-11-09T04:37:10.443Z,11.49
2022-11-09T04:39:37.874Z,11.42
2022-11-09T04:42:05.311Z,11.48
2022-11-09T04:44:35.658Z,11.46
2022-11-09T04:47:02.963Z,11.47
2022-11-09T04:49:30.304Z,11.51
2022-11-09T04:51:57.666Z,11.50
2022-11-09T04:54:24.997Z,11.47
2022-11-09T04:56:52.369Z,11.51
2022-11-09T04:59:21.774Z,11.50
2022-11-09T05:01:49.071Z,11.53
2022-11-09T05:04:16.555Z,11.41
2022-11-09T05:06:44.007Z,11.54
2022-11-09T05:09:11.405Z,11.52
2022-11-09T05:11:38.822Z,11.54
2022-11-09T05:14:06.296Z,11.44
2022-11-09T05:16:33.955Z,11.59
2022-11-09T05:19:01.457Z,11.58
2022-11-09T05:21:28.821Z,11.50
2022-11-09T05:24:02.972Z,11.44
2022-11-09T05:26:39.160Z,11.53
2022-11-09T05:29:09.071Z,11.54
2022-11-09T05:31:37.723Z,11.48
2022-11-09T05:34:06.813Z,11.54
2022-11-09T05:36:34.521Z,11.50
2022-11-09T05:39:01.885Z,11.54
2022-11-09T05:41:29.406Z,11.51
2022-11-09T05:43:56.924Z,11.54
2022-11-09T05:46:25.264Z,11.56
2022-11-09T05:48:52.820Z,11.52
2022-11-09T05:51:20.270Z,11.58
2022-11-09T05:53:50.932Z,11.59
2022-11-09T05:56:18.533Z,11.55
2022-11-09T05:58:45.935Z,11.55
2022-11-09T06:01:21.044Z,11.57
2022-11-09T06:03:48.329Z,11.55
2022-11-09T06:06:16.709Z,11.58
2022-11-09T06:08:44.118Z,11.54
2022-11-09T06:11:18.290Z,11.56
2022-11-09T06:13:50.560Z,11.47
2022-11-09T06:16:18.051Z,11.60
2022-11-09T06:18:45.417Z,11.49
2022-11-09T06:21:13.332Z,11.53
2022-11-09T06:23:40.914Z,11.55
2022-11-09T06:26:13.202Z,11.45
2022-11-09T06:28:41.848Z,11.52
2022-11-09T06:31:13.039Z,11.45
2022-11-09T06:33:40.570Z,11.52
2022-11-09T06:36:09.360Z,11.57
2022-11-09T06:38:36.960Z,11.59
2022-11-09T06:41:04.393Z,11.63
2022-11-09T06:43:31.817Z,11.71
2022-11-09T06:46:00.962Z,11.72
2022-11-09T06:48:28.403Z,11.67
2022-11-09T06:50:59.937Z,11.73
2022-11-09T06:53:29.853Z,11.69
2022-11-09T06:56:00.142Z,11.68
2022-11-09T06:58:30.578Z,11.70
2022-11-09T07:00:58.864Z,11.74
2022-11-09T07:03:26.690Z,11.76
2022-11-09T07:05:54.178Z,11.85
2022-11-09T07:08:21.500Z,11.88
2022-11-09T07:10:49.034Z,11.86
2022-11-09T07:13:16.870Z,11.78
2022-11-09T07:15:44.538Z,11.87
2022-11-09T07:18:14.899Z,11.87
2022-11-09T07:20:43.033Z,11.89
2022-11-09T07:23:10.464Z,11.87
2022-11-09T07:26:02.641Z,11.82
2022-11-09T07:28:30.224Z,11.78
2022-11-09T07:30:58.972Z,11.79
2022-11-09T07:33:27.061Z,11.74
2022-11-09T07:35:54.851Z,11.74
2022-11-09T07:38:22.234Z,11.71
2022-11-09T07:40:49.791Z,11.66
2022-11-09T07:43:17.719Z,11.68
2022-11-09T07:45:50.155Z,11.73
2022-11-09T07:48:17.814Z,11.74
2022-11-09T07:50:45.345Z,11.69
2022-11-09T07:53:14.485Z,11.66
2022-11-09T07:55:42.140Z,11.61
2022-11-09T07:58:12.883Z,11.60
2022-11-09T08:00:42.098Z,11.53
2022-11-09T08:03:10.317Z,11.48
2022-11-09T08:05:39.415Z,11.48
2022-11-09T08:08:10.557Z,11.52
2022-11-09T08:10:39.591Z,11.51
2022-11-09T08:13:13.555Z,11.52
2022-11-09T08:15:42.011Z,11.47
2022-11-09T08:18:16.037Z,11.54
2022-11-09T08:20:43.522Z,11.51
2022-11-09T08:23:16.680Z,11.55
2022-11-09T08:25:44.388Z,11.61
2022-11-09T08:28:14.794Z,11.59
2022-11-09T08:30:44.892Z,11.63
2022-11-09T08:33:13.375Z,11.68
2022-11-09T08:35:40.941Z,11.71
2022-11-09T08:38:08.408Z,11.67
2022-11-09T08:40:36.975Z,11.67
2022-11-09T08:43:07.374Z,11.65
2022-11-09T08:45:36.325Z,11.64
2022-11-09T08:48:04.951Z,11.64
2022-11-09T08:50:33.673Z,11.73
2022-11-09T08:53:01.846Z,11.79
2022-11-09T08:55:30.290Z,11.82
2022-11-09T08:58:00.105Z,11.87
2022-11-09T09:00:30.639Z,11.87
2022-11-09T09:02:58.300Z,11.84
2022-11-09T09:05:26.594Z,11.85
2022-11-09T09:07:53.997Z,11.86
2022-11-09T09:10:21.372Z,11.79
2022-11-09T09:12:48.713Z,11.82
2022-11-09T09:15:16.271Z,11.72
2022-11-09T09:17:44.005Z,11.73
2022-11-09T09:20:11.405Z,11.79
2022-11-09T09:22:39.979Z,11.86
2022-11-09T09:25:08.901Z,11.96
2022-11-09T09:27:36.367Z,11.90
2022-11-09T09:30:04.513Z,11.85
2022-11-09T09:32:32.225Z,11.95
2022-11-09T09:34:59.630Z,11.83
2022-11-09T09:37:27.118Z,11.84
2022-11-09T09:39:55.076Z,11.92
2022-11-09T09:42:35.714Z,11.91
2022-11-09T09:45:08.371Z,11.98
2022-11-09T09:47:44.630Z,12.00
2022-11-09T09:50:20.478Z,12.02
2022-11-09T09:53:22.739Z,12.15
2022-11-09T09:55:55.128Z,12.23
2022-11-09T09:58:29.643Z,12.09
2022-11-09T10:01:02.367Z,12.05
2022-11-09T10:03:29.758Z,12.12
2022-11-09T10:06:37.790Z,11.98
2022-11-09T10:09:42.781Z,12.05
2022-11-09T10:12:23.036Z,12.02
2022-11-09T10:15:31.839Z,12.05
2022-11-09T10:18:14.199Z,12.00
2022-11-09T10:20:52.932Z,11.96
2022-11-09T10:23:43.699Z,12.02
2022-11-09T10:26:27.495Z,12.05
2022-11-09T10:29:17.110Z,12.08
2022-11-09T10:31:47.355Z,12.13
2022-11-09T10:34:19.719Z,12.23
2022-11-09T10:37:10.269Z,12.13
2022-11-09T10:40:03.553Z,12.12
2022-11-09T10:42:53.516Z,12.07
2022-11-09T10:45:45.080Z,12.09
2022-11-09T10:48:34.638Z,12.07
2022-11-09T10:51:41.307Z,12.16
2022-11-09T10:54:38.402Z,12.22
2022-11-09T10:57:25.318Z,12.31
2022-11-09T11:00:19.352Z,12.57
2022-11-09T11:03:16.722Z,12.96
2022-11-09T11:06:14.609Z,13.09
2022-11-09T11:09:06.169Z,13.32
2022-11-09T11:12:15.886Z,13.20
2022-11-09T11:15:02.156Z,13.24
2022-11-09T11:17:48.185Z,13.18
2022-11-09T11:20:38.515Z,13.17
2022-11-09T11:23:26.380Z,13.08
2022-11-09T11:26:19.677Z,13.16
2022-11-09T11:29:24.862Z,13.44
2022-11-09T11:32:15.303Z,13.63
2022-11-09T11:35:03.607Z,13.52
2022-11-09T11:38:10.877Z,13.50
2022-11-09T11:41:18.537Z,13.45
2022-11-09T11:44:31.019Z,13.39
2022-11-09T11:47:28.524Z,13.31
2022-11-09T11:50:36.067Z,13.24
2022-11-09T11:53:49.364Z,13.15
2022-11-09T11:56:44.434Z,13.14
2022-11-09T12:00:10.385Z,13.15
2022-11-09T12:03:36.870Z,13.11
2022-11-09T12:06:44.486Z,13.10
2022-11-09T12:09:47.269Z,13.04
2022-11-09T12:12:56.552Z,13.10
2022-11-09T12:15:45.552Z,13.08
2022-11-09T12:19:12.919Z,12.93
2022-11-09T12:22:01.636Z,13.03
2022-11-09T12:25:09.671Z,13.12
2022-11-09T12:28:13.884Z,13.09
2022-11-09T12:31:12.468Z,13.05
2022-11-09T12:34:03.209Z,12.93
2022-11-09T12:37:02.608Z,13.06
2022-11-09T12:39:55.441Z,12.98
2022-11-09T12:42:49.547Z,13.01
2022-11-09T12:45:38.832Z,13.09
2022-11-09T12:48:32.879Z,12.96
2022-11-09T12:51:20.483Z,13.07
2022-11-09T12:54:12.148Z,13.04
2022-11-09T12:57:01.428Z,13.02
2022-11-09T12:59:56.756Z,13.00
2022-11-09T13:03:01.214Z,13.09
2022-11-09T13:05:49.845Z,12.99
2022-11-09T13:08:37.020Z,13.00
2022-11-09T13:11:40.635Z,12.91
2022-11-09T13:14:34.957Z,12.83
2022-11-09T13:17:26.518Z,12.79
2022-11-09T13:24:03.207Z,12.93
2022-11-09T13:26:57.148Z,12.93
2022-11-09T13:29:42.887Z,12.95
2022-11-09T13:32:33.194Z,13.00
2022-11-09T13:35:59.113Z,13.00
2022-11-09T13:38:46.515Z,13.10
2022-11-09T13:41:32.799Z,13.06
2022-11-09T13:44:25.879Z,13.10
2022-11-09T13:47:26.565Z,13.15
2022-11-09T13:50:19.617Z,13.19
2022-11-09T13:53:37.538Z,13.07
2022-11-09T13:56:40.880Z,13.02
2022-11-09T13:59:41.872Z,13.01
2022-11-09T14:02:27.718Z,12.87
2022-11-09T14:05:35.131Z,12.98
2022-11-09T14:08:28.757Z,12.96
2022-11-09T14:11:33.239Z,12.94
2022-11-09T14:14:37.286Z,12.89
2022-11-09T14:17:30.637Z,12.77
2022-11-09T14:20:39.229Z,12.83
2022-11-09T14:23:30.611Z,12.80
2022-11-09T14:26:22.211Z,12.75
2022-11-09T14:29:20.600Z,12.79
2022-11-09T14:32:26.663Z,12.76
2022-11-09T14:35:21.966Z,12.78
2022-11-09T14:38:26.262Z,12.75
2022-11-09T14:41:26.875Z,12.80
2022-11-09T14:44:50.883Z,12.81
2022-11-09T14:47:39.565Z,12.74
2022-11-09T14:50:30.857Z,12.81
2022-11-09T14:53:23.589Z,12.74
2022-11-09T14:56:16.632Z,12.80
2022-11-09T14:59:05.745Z,12.83
2022-11-09T15:02:03.185Z,12.74
2022-11-09T15:05:30.503Z,12.66
2022-11-09T15:08:21.713Z,12.65
2022-11-09T15:11:11.264Z,12.63
2022-11-09T15:13:57.741Z,12.61
2022-11-09T15:16:44.073Z,12.74
2022-11-09T15:19:33.486Z,12.75
2022-11-09T15:22:58.058Z,12.67
2022-11-09T15:25:47.050Z,12.65
2022-11-09T15:28:35.709Z,12.61
2022-11-09T15:31:22.788Z,12.57
2022-11-09T15:34:23.191Z,12.38
2022-11-09T15:37:38.503Z,12.33
2022-11-09T15:40:25.271Z,12.23
2022-11-09T15:43:11.327Z,12.13
2022-11-09T15:46:00.409Z,12.07
2022-11-09T15:48:46.642Z,11.94
2022-11-09T15:51:33.018Z,11.86
2022-11-09T15:54:19.433Z,12.00
2022-11-09T15:57:07.975Z,11.93
2022-11-09T15:59:53.909Z,11.93
2022-11-09T16:02:40.282Z,11.88
2022-11-09T16:05:27.878Z,11.91
2022-11-09T16:08:14.247Z,11.91
2022-11-09T16:11:04.713Z,11.92
2022-11-09T16:13:50.409Z,11.96
2022-11-09T16:16:36.618Z,11.93
2022-11-09T16:19:22.573Z,11.90
2022-11-09T16:22:09.917Z,11.98
2022-11-09T16:24:57.047Z,11.86
2022-11-09T16:27:50.083Z,11.86
2022-11-09T16:30:36.443Z,11.92
2022-11-09T16:33:22.645Z,11.88
2022-11-09T16:36:15.226Z,11.73
2022-11-09T16:39:06.191Z,11.71
2022-11-09T16:41:53.457Z,11.66
2022-11-09T16:44:43.013Z,11.65
2022-11-09T16:47:29.387Z,11.61
2022-11-09T16:50:15.809Z,11.57
2022-11-09T16:53:02.014Z,11.58
2022-11-09T16:55:50.920Z,11.59
2022-11-09T16:58:37.024Z,11.64
2022-11-09T17:01:23.717Z,11.73
2022-11-09T17:04:09.744Z,11.73
2022-11-09T17:06:55.539Z,11.71
2022-11-09T17:09:41.579Z,11.74
2022-11-09T17:12:30.232Z,11.63
2022-11-09T17:15:17.123Z,11.62
2022-11-09T17:18:03.038Z,11.62
2022-11-09T17:20:50.739Z,11.68
2022-11-09T17:23:36.980Z,11.67
2022-11-09T17:26:23.637Z,11.70
2022-11-09T17:29:09.993Z,11.66
2022-11-09T17:31:55.882Z,11.75
2022-11-09T17:34:41.888Z,11.63
2022-11-09T17:37:28.767Z,11.56
2022-11-09T17:40:14.695Z,11.62
2022-11-09T17:43:00.675Z,11.64
2022-11-09T17:45:46.539Z,11.67
2022-11-09T17:48:33.937Z,11.63
2022-11-09T17:51:20.901Z,11.70
2022-11-09T17:54:09.490Z,11.71
2022-11-09T17:56:55.394Z,11.64
2022-11-09T17:59:41.365Z,11.62
2022-11-09T18:02:27.264Z,11.64
2022-11-09T18:05:15.765Z,11.71
2022-11-09T18:08:01.842Z,11.74
2022-11-09T18:10:50.079Z,11.74
2022-11-09T18:13:39.297Z,11.78
2022-11-09T18:16:25.497Z,11.82
2022-11-09T18:19:15.262Z,11.85
2022-11-09T18:22:03.052Z,11.91
2022-11-09T18:24:49.993Z,11.91
2022-11-09T18:27:35.791Z,11.90
2022-11-09T18:30:24.856Z,11.87
2022-11-09T18:33:10.635Z,11.86
2022-11-09T18:36:15.635Z,11.87
2022-11-09T18:39:03.267Z,12.16
2022-11-09T18:41:49.140Z,11.97
2022-11-09T18:44:35.524Z,11.92
2022-11-09T18:47:21.212Z,11.88
2022-11-09T18:50:08.012Z,11.90
2022-11-09T18:52:53.744Z,11.90
2022-11-09T18:55:39.846Z,11.88
2022-11-09T18:58:26.379Z,11.92
2022-11-09T19:01:12.526Z,11.89
2022-11-09T19:04:01.360Z,11.88
2022-11-09T19:06:47.691Z,11.91
2022-11-09T19:09:38.785Z,11.95
2022-11-09T19:12:26.512Z,11.92
2022-11-09T19:15:12.697Z,11.94
2022-11-09T19:17:58.674Z,11.90
2022-11-09T19:20:44.671Z,11.85
2022-11-09T19:23:34.368Z,11.83
2022-11-09T19:26:22.091Z,11.79
2022-11-09T19:29:09.537Z,11.77
2022-11-09T19:31:55.316Z,11.82
2022-11-09T19:34:42.852Z,11.79
2022-11-09T19:37:29.190Z,11.86
2022-11-09T19:40:15.373Z,11.91
2022-11-09T19:43:01.331Z,11.92
2022-11-09T19:45:46.890Z,11.88
2022-11-09T19:48:35.000Z,11.90
2022-11-09T19:51:21.060Z,11.83
2022-11-09T19:54:07.687Z,11.85
2022-11-09T19:56:54.029Z,11.88
2022-11-09T19:59:40.226Z,11.84
2022-11-09T20:02:26.067Z,11.84
2022-11-09T20:05:11.876Z,11.87
2022-11-09T20:07:58.080Z,11.90
2022-11-09T20:10:43.889Z,11.87
2022-11-09T20:13:29.750Z,11.85
2022-11-09T20:16:15.664Z,11.71
2022-11-09T20:19:04.207Z,11.70
2022-11-09T20:21:50.588Z,11.75
2022-11-09T20:24:36.630Z,11.71
2022-11-09T20:27:24.322Z,11.71
2022-11-09T20:30:12.482Z,11.64
2022-11-09T20:32:58.760Z,11.75
2022-11-09T20:35:52.355Z,11.76
2022-11-09T20:38:38.757Z,11.72
2022-11-09T20:41:25.719Z,11.69
2022-11-09T20:44:12.065Z,11.66
2022-11-09T20:46:57.798Z,11.73
2022-11-09T20:49:44.163Z,11.77
2022-11-09T20:52:30.585Z,11.84
2022-11-09T20:55:16.686Z,11.82
2022-11-09T20:58:02.500Z,11.80
2022-11-09T21:00:48.547Z,11.83
2022-11-09T21:03:35.086Z,11.90
2022-11-09T21:06:22.038Z,11.80
2022-11-09T21:09:07.902Z,11.87
2022-11-09T21:12:12.120Z,11.90
2022-11-09T21:14:58.278Z,11.86
2022-11-09T21:17:44.429Z,11.87
2022-11-09T21:20:30.420Z,11.80
2022-11-09T21:23:16.148Z,11.80
2022-11-09T21:26:21.553Z,11.84
2022-11-09T21:29:40.303Z,11.81
2022-11-09T21:32:26.538Z,11.82
2022-11-09T21:35:12.406Z,11.76
2022-11-09T21:37:58.386Z,11.90
2022-11-09T21:40:44.486Z,11.83
2022-11-09T21:43:30.370Z,11.88
2022-11-09T21:46:16.410Z,11.86
2022-11-09T21:49:02.926Z,11.87
2022-11-09T21:51:49.161Z,11.84
2022-11-09T21:54:35.793Z,11.86
2022-11-09T21:57:21.846Z,11.86
2022-11-09T22:00:09.333Z,11.89
2022-11-09T22:02:55.130Z,11.91
2022-11-09T22:05:41.000Z,11.90
2022-11-09T22:08:26.976Z,11.88
2022-11-09T22:11:16.268Z,11.85
2022-11-09T22:14:20.674Z,11.78
2022-11-09T22:17:10.327Z,11.73
2022-11-09T22:20:14.668Z,11.82
2022-11-09T22:23:05.558Z,11.84
2022-11-09T22:25:51.236Z,11.81
2022-11-09T22:28:37.947Z,11.75
2022-11-09T22:31:24.057Z,11.74
2022-11-09T22:34:09.909Z,11.78
2022-11-09T22:36:56.041Z,11.74
2022-11-09T22:39:47.069Z,11.71
2022-11-09T22:42:33.477Z,11.65
2022-11-09T22:45:20.655Z,11.67
2022-11-09T22:48:07.164Z,11.78
2022-11-09T22:50:53.366Z,11.80
2022-11-09T22:53:39.543Z,11.78
2022-11-09T22:56:25.987Z,11.74
2022-11-09T22:59:11.844Z,11.70
2022-11-09T23:01:57.975Z,11.74
2022-11-09T23:04:43.912Z,11.74
2022-11-09T23:07:31.621Z,11.75
2022-11-09T23:10:17.762Z,11.77
2022-11-09T23:13:04.665Z,11.80
2022-11-09T23:15:56.153Z,11.80
2022-11-09T23:18:57.440Z,11.84
2022-11-09T23:21:43.559Z,11.78
2022-11-09T23:24:47.790Z,11.80
2022-11-09T23:27:33.506Z,11.77
2022-11-09T23:30:20.174Z,11.79
2022-11-09T23:33:06.187Z,11.78
2022-11-09T23:35:52.255Z,11.83
2022-11-09T23:38:39.566Z,11.88
2022-11-09T23:41:25.622Z,11.88
2022-11-09T23:44:11.859Z,11.86
2022-11-09T23:46:57.691Z,11.77
2022-11-09T23:49:43.318Z,11.77
2022-11-09T23:52:29.137Z,11.77
2022-11-09T23:55:14.855Z,11.80
2022-11-09T23:58:02.385Z,11.80
